Time;durP1;ratioP1;P1;durP2;ratioP2;P2;SDS_P1;SDS_P2;PMS_P1;PMS_P2;Temp;Humidity;BMP_temperature;BMP_pressure;BME280_temperature;BME280_humidity;BME280_pressure;Samples;Min_cycle;Max_cycle;Signal;HPM_P1;HPM_P2
2023/01/16 00:00:16;;;;;;;;;;;;;;;;;;5087239;28;19913;-64
2023/01/16 00:02:41;;;;;;;;;;;;;;;;;;5059304;28;20257;-64
2023/01/16 00:05:06;;;;;;;;;;;;;;;;;;5072137;28;20437;-63
2023/01/16 00:07:31;;;;;;;;;;;;;;;;;;5073945;28;19920;-63
2023/01/16 00:09:56;;;;;;;;;;;;;;;;;;5086083;28;19919;-64
2023/01/16 00:12:21;;;;;;;;;;;;;;;;;;5074897;28;20425;-64
2023/01/16 00:14:47;;;;;;;;;;;;;;;;;;5073758;28;19916;-64
2023/01/16 00:17:12;;;;;;;;;;;;;;;;;;5074929;28;19964;-63
2023/01/16 00:19:37;;;;;;;;;;;;;;;;;;5072429;28;20390;-64
2023/01/16 00:22:02;;;;;;;;;;;;;;;;;;5071655;28;19919;-64
2023/01/16 00:24:27;;;;;;;;;;;;;;;;;;5073045;28;19913;-63
2023/01/16 00:26:52;;;;;;;;;;;;;;;;;;5073353;28;20368;-64
2023/01/16 00:29:17;;;;;;;;;;;;;;;;;;5048620;28;19920;-64
2023/01/16 00:31:42;;;;;;;;;;;;;;;;;;5077051;28;19952;-65
2023/01/16 00:34:08;;;;;;;;;;;;;;;;;;5063837;28;19969;-64
2023/01/16 00:36:33;;;;;;;;;;;;;;;;;;5071806;28;19966;-63
2023/01/16 00:38:58;;;;;;;;;;;;;;;;;;5071462;28;19974;-64
2023/01/16 00:41:23;;;;;;;;;;;;;;;;;;5064142;28;19966;-64
2023/01/16 00:43:48;;;;;;;;;;;;;;;;;;5051614;28;19921;-64
2023/01/16 00:46:13;;;;;;;;;;;;;;;;;;5053481;28;19909;-64
2023/01/16 00:48:38;;;;;;;;;;;;;;;;;;5050686;28;19990;-64
2023/01/16 00:51:04;;;;;;;;;;;;;;;;;;5053657;28;19912;-64
2023/01/16 00:53:29;;;;;;;;;;;;;;;;;;5053676;28;19943;-63
2023/01/16 00:55:54;;;;;;;;;;;;;;;;;;5051435;28;20354;-63
2023/01/16 00:58:19;;;;;;;;;;;;;;;;;;5050737;28;19923;-64
2023/01/16 01:00:44;;;;;;;;;;;;;;;;;;5051535;28;20310;-64
2023/01/16 01:03:09;;;;;;;;;;;;;;;;;;5048762;28;19920;-64
2023/01/16 01:05:34;;;;;;;;;;;;;;;;;;5059635;28;19920;-64
2023/01/16 01:07:59;;;;;;;;;;;;;;;;;;5054219;28;19913;-63
2023/01/16 01:10:25;;;;;;;;;;;;;;;;;;5052410;28;19913;-63
2023/01/16 01:12:50;;;;;;;;;;;;;;;;;;5052679;28;20065;-64
2023/01/16 01:15:15;;;;;;;;;;;;;;;;;;5050589;28;20404;-63
2023/01/16 01:17:40;;;;;;;;;;;;;;;;;;5051507;28;20006;-63
2023/01/16 01:20:05;;;;;;;;;;;;;;;;;;5049198;28;19917;-63
2023/01/16 01:22:30;;;;;;;;;;;;;;;;;;5052171;28;19921;-65
2023/01/16 01:24:55;;;;;;;;;;;;;;;;;;5048903;28;19913;-65
2023/01/16 01:27:20;;;;;;;;;;;;;;;;;;5051332;28;20249;-64
2023/01/16 01:29:46;;;;;;;;;;;;;;;;;;5049938;28;19913;-64
2023/01/16 01:32:11;;;;;;;;;;;;;;;;;;5052332;28;20004;-64
2023/01/16 01:34:36;;;;;;;;;;;;;;;;;;5048819;28;19917;-64
2023/01/16 01:37:01;;;;;;;;;;;;;;;;;;5052143;28;19913;-65
2023/01/16 01:39:26;;;;;;;;;;;;;;;;;;5060836;28;19921;-64
2023/01/16 01:42:41;;;;;;;;;;;;;;;;;;5055847;28;19919;-65
2023/01/16 01:44:36;;;;;;;;;;;;;;;;;;5083107;28;19961;-63
2023/01/16 01:47:01;;;;;;;;;;;;;;;;;;5061225;28;19909;-63
2023/01/16 01:49:27;;;;;;;;;;;;;;;;;;5068439;28;19912;-63
2023/01/16 01:51:52;;;;;;;;;;;;;;;;;;5078196;28;19913;-64
2023/01/16 01:54:17;;;;;;;;;;;;;;;;;;5079806;28;20284;-64
2023/01/16 01:56:42;;;;;;;;;;;;;;;;;;5073012;28;19958;-64
2023/01/16 01:59:07;;;;;;;;;;;;;;;;;;5067859;28;19916;-63
2023/01/16 02:01:32;;;;;;;;;;;;;;;;;;5078180;28;20054;-64
2023/01/16 02:03:58;;;;;;;;;;;;;;;;;;5092911;28;19912;-64
2023/01/16 02:06:23;;;;;;;;;;;;;;;;;;5069369;28;19912;-64
2023/01/16 02:08:48;;;;;;;;;;;;;;;;;;5081749;28;19912;-64
2023/01/16 02:11:25;;;;;;;;;;;;;;;;;;5053384;28;19919;-63
2023/01/16 02:13:50;;;;;;;;;;;;;;;;;;5085677;28;19967;-63
2023/01/16 02:19:17;;;;;;;;;;;;;;;;;;5092771;28;20394;-63
2023/01/16 02:21:43;;;;;;;;;;;;;;;;;;5070858;28;20004;-64
2023/01/16 02:24:08;;;;;;;;;;;;;;;;;;5069729;28;19999;-63
2023/01/16 02:26:33;;;;;;;;;;;;;;;;;;5075231;28;20410;-64
2023/01/16 02:28:58;;;;;;;;;;;;;;;;;;5070041;28;19916;-65
2023/01/16 02:31:23;;;;;;;;;;;;;;;;;;5066650;28;19912;-63
2023/01/16 02:33:48;;;;;;;;;;;;;;;;;;5076873;28;19924;-63
2023/01/16 02:36:13;;;;;;;;;;;;;;;;;;5071890;28;19920;-64
2023/01/16 02:38:38;;;;;;;;;;;;;;;;;;5075363;28;20364;-63
2023/01/16 02:41:04;;;;;;;;;;;;;;;;;;5070276;28;20009;-64
2023/01/16 02:43:29;;;;;;;;;;;;;;;;;;5070017;28;19948;-64
2023/01/16 02:45:54;;;;;;;;;;;;;;;;;;5069293;28;20331;-64
2023/01/16 02:48:19;;;;;;;;;;;;;;;;;;5068418;28;19919;-63
2023/01/16 02:50:44;;;;;;;;;;;;;;;;;;5071467;28;19919;-64
2023/01/16 02:53:12;;;;;;;;;;;;;;;;;;5063933;28;20019;-64
2023/01/16 02:55:37;;;;;;;;;;;;;;;;;;5064969;28;19935;-64
2023/01/16 02:58:02;;;;;;;;;;;;;;;;;;5078000;28;19912;-64
2023/01/16 03:00:27;;;;;;;;;;;;;;;;;;5070555;28;19955;-64
2023/01/16 03:02:52;;;;;;;;;;;;;;;;;;5067384;28;19962;-64
2023/01/16 03:05:18;;;;;;;;;;;;;;;;;;5073068;28;19956;-63
2023/01/16 03:07:43;;;;;;;;;;;;;;;;;;5058374;28;19943;-65
2023/01/16 03:10:08;;;;;;;;;;;;;;;;;;5074240;28;19916;-64
2023/01/16 03:12:33;;;;;;;;;;;;;;;;;;5074326;28;20377;-64
2023/01/16 03:14:58;;;;;;;;;;;;;;;;;;5073966;28;19916;-64
2023/01/16 03:17:23;;;;;;;;;;;;;;;;;;5077928;28;20011;-65
2023/01/16 03:19:48;;;;;;;;;;;;;;;;;;5072941;28;19921;-64
2023/01/16 03:22:13;;;;;;;;;;;;;;;;;;5073983;28;19916;-64
2023/01/16 03:24:39;;;;;;;;;;;;;;;;;;5074728;28;19939;-64
2023/01/16 03:27:04;;;;;;;;;;;;;;;;;;5065225;28;19980;-64
2023/01/16 03:29:29;;;;;;;;;;;;;;;;;;5075016;28;19916;-63
2023/01/16 03:31:54;;;;;;;;;;;;;;;;;;5071916;28;19912;-63
2023/01/16 03:34:21;;;;;;;;;;;;;;;;;;5074163;28;19912;-64
2023/01/16 03:36:46;;;;;;;;;;;;;;;;;;5069857;28;20007;-64
2023/01/16 03:39:11;;;;;;;;;;;;;;;;;;5067893;28;20011;-64
2023/01/16 03:41:36;;;;;;;;;;;;;;;;;;5055701;28;20402;-64
2023/01/16 03:44:01;;;;;;;;;;;;;;;;;;5051146;28;19925;-64
2023/01/16 03:46:27;;;;;;;;;;;;;;;;;;5038860;28;20003;-64
2023/01/16 03:48:52;;;;;;;;;;;;;;;;;;5053956;28;19912;-64
2023/01/16 03:51:17;;;;;;;;;;;;;;;;;;5052490;28;20277;-63
2023/01/16 03:53:43;;;;;;;;;;;;;;;;;;5058134;28;19912;-63
2023/01/16 03:56:08;;;;;;;;;;;;;;;;;;5052874;28;20369;-64
2023/01/16 03:58:33;;;;;;;;;;;;;;;;;;5039126;28;19913;-63
2023/01/16 04:00:58;;;;;;;;;;;;;;;;;;5042836;28;19927;-65
2023/01/16 04:03:23;;;;;;;;;;;;;;;;;;5052482;28;19917;-65
2023/01/16 04:05:48;;;;;;;;;;;;;;;;;;5052491;28;19912;-64
2023/01/16 04:08:13;;;;;;;;;;;;;;;;;;5050932;28;20000;-64
2023/01/16 04:10:39;;;;;;;;;;;;;;;;;;5053484;28;19948;-64
2023/01/16 04:13:04;;;;;;;;;;;;;;;;;;5048099;28;19920;-64
2023/01/16 04:15:29;;;;;;;;;;;;;;;;;;5053149;28;20389;-64
2023/01/16 04:17:54;;;;;;;;;;;;;;;;;;5049535;28;20357;-64
2023/01/16 04:20:19;;;;;;;;;;;;;;;;;;5052359;28;19970;-64
2023/01/16 04:22:44;;;;;;;;;;;;;;;;;;5052836;28;19987;-64
2023/01/16 04:25:10;;;;;;;;;;;;;;;;;;5059547;28;20062;-64
2023/01/16 04:27:35;;;;;;;;;;;;;;;;;;5054078;28;19927;-65
2023/01/16 04:30:00;;;;;;;;;;;;;;;;;;5054111;28;19913;-64
2023/01/16 04:32:25;;;;;;;;;;;;;;;;;;5052954;28;19912;-64
2023/01/16 04:34:50;;;;;;;;;;;;;;;;;;5049418;28;20357;-64
2023/01/16 04:37:15;;;;;;;;;;;;;;;;;;5056749;28;20197;-64
2023/01/16 04:39:40;;;;;;;;;;;;;;;;;;5048438;28;19922;-63
2023/01/16 04:42:05;;;;;;;;;;;;;;;;;;5074232;28;19952;-63
2023/01/16 04:44:31;;;;;;;;;;;;;;;;;;5070026;28;20333;-63
2023/01/16 04:46:56;;;;;;;;;;;;;;;;;;5073563;28;20372;-63
2023/01/16 04:49:21;;;;;;;;;;;;;;;;;;5067254;28;21873;-64
2023/01/16 04:51:46;;;;;;;;;;;;;;;;;;5033739;28;19912;-63
2023/01/16 04:54:11;;;;;;;;;;;;;;;;;;5068855;28;19940;-64
2023/01/16 04:56:36;;;;;;;;;;;;;;;;;;5073614;28;20007;-64
2023/01/16 04:59:01;;;;;;;;;;;;;;;;;;5046378;28;19918;-64
2023/01/16 05:01:27;;;;;;;;;;;;;;;;;;5023698;28;19914;-64
2023/01/16 05:03:52;;;;;;;;;;;;;;;;;;5051426;28;20438;-63
2023/01/16 05:06:17;;;;;;;;;;;;;;;;;;5067953;28;19921;-64
2023/01/16 05:08:42;;;;;;;;;;;;;;;;;;5070263;28;19962;-64
2023/01/16 05:11:07;;;;;;;;;;;;;;;;;;5065342;28;20432;-64
2023/01/16 05:13:32;;;;;;;;;;;;;;;;;;5026700;28;20354;-64
2023/01/16 05:15:57;;;;;;;;;;;;;;;;;;5044770;28;19977;-64
2023/01/16 05:18:23;;;;;;;;;;;;;;;;;;5067911;28;19924;-64
2023/01/16 05:20:48;;;;;;;;;;;;;;;;;;5057148;28;19919;-64
2023/01/16 05:23:13;;;;;;;;;;;;;;;;;;5035301;28;19933;-64
2023/01/16 05:25:38;;;;;;;;;;;;;;;;;;5072661;28;20003;-64
2023/01/16 05:28:03;;;;;;;;;;;;;;;;;;5072566;28;19920;-64
2023/01/16 05:30:28;;;;;;;;;;;;;;;;;;5035060;28;19920;-64
2023/01/16 05:32:53;;;;;;;;;;;;;;;;;;5035849;28;19918;-64
2023/01/16 05:35:19;;;;;;;;;;;;;;;;;;5053559;28;19916;-64
2023/01/16 05:37:45;;;;;;;;;;;;;;;;;;5053161;28;19916;-63
2023/01/16 05:40:10;;;;;;;;;;;;;;;;;;5087275;28;19924;-64
2023/01/16 05:42:35;;;;;;;;;;;;;;;;;;5066023;28;19920;-64
2023/01/16 05:45:00;;;;;;;;;;;;;;;;;;5027383;28;19987;-64
2023/01/16 05:47:25;;;;;;;;;;;;;;;;;;5004032;28;19912;-64
2023/01/16 05:49:50;;;;;;;;;;;;;;;;;;5020084;28;19921;-64
2023/01/16 05:52:15;;;;;;;;;;;;;;;;;;4995481;28;20025;-64
2023/01/16 05:54:42;;;;;;;;;;;;;;;;;;4982007;28;20402;-63
2023/01/16 05:57:08;;;;;;;;;;;;;;;;;;5044580;28;19919;-63
2023/01/16 05:59:33;;;;;;;;;;;;;;;;;;5056770;28;19921;-64
2023/01/16 06:01:58;;;;;;;;;;;;;;;;;;5059613;28;19920;-64
2023/01/16 06:04:23;;;;;;;;;;;;;;;;;;5058141;28;19966;-64
2023/01/16 06:06:48;;;;;;;;;;;;;;;;;;5031261;28;20369;-64
2023/01/16 06:09:13;;;;;;;;;;;;;;;;;;5032956;28;19914;-64
2023/01/16 06:11:39;;;;;;;;;;;;;;;;;;5021961;28;19920;-64
2023/01/16 06:14:04;;;;;;;;;;;;;;;;;;5052068;28;19952;-65
2023/01/16 06:16:29;;;;;;;;;;;;;;;;;;5026350;28;20327;-64
2023/01/16 06:18:54;;;;;;;;;;;;;;;;;;5069222;28;20295;-63
2023/01/16 06:21:20;;;;;;;;;;;;;;;;;;5032698;28;20381;-63
2023/01/16 06:23:45;;;;;;;;;;;;;;;;;;5044785;28;20360;-65
2023/01/16 06:26:10;;;;;;;;;;;;;;;;;;5029946;28;20383;-64
2023/01/16 06:28:35;;;;;;;;;;;;;;;;;;5066869;28;20380;-64
2023/01/16 06:31:00;;;;;;;;;;;;;;;;;;5036311;28;20377;-63
2023/01/16 06:33:26;;;;;;;;;;;;;;;;;;5020214;28;19913;-64
2023/01/16 06:35:51;;;;;;;;;;;;;;;;;;5027919;28;19943;-65
2023/01/16 06:38:16;;;;;;;;;;;;;;;;;;5073865;28;20265;-65
2023/01/16 06:40:44;;;;;;;;;;;;;;;;;;5054006;28;19920;-65
2023/01/16 06:43:09;;;;;;;;;;;;;;;;;;5069623;28;19921;-65
2023/01/16 06:45:34;;;;;;;;;;;;;;;;;;5070861;28;20376;-65
2023/01/16 06:47:59;;;;;;;;;;;;;;;;;;5070511;28;19923;-65
2023/01/16 06:50:24;;;;;;;;;;;;;;;;;;5053904;28;20054;-65
2023/01/16 06:52:49;;;;;;;;;;;;;;;;;;5059574;28;20435;-65
2023/01/16 06:55:14;;;;;;;;;;;;;;;;;;5053733;28;20380;-65
2023/01/16 06:57:40;;;;;;;;;;;;;;;;;;5069321;28;19913;-65
2023/01/16 07:00:05;;;;;;;;;;;;;;;;;;5070082;28;19923;-65
2023/01/16 07:02:30;;;;;;;;;;;;;;;;;;5070880;28;19917;-65
2023/01/16 07:04:55;;;;;;;;;;;;;;;;;;5068780;28;19935;-65
2023/01/16 07:07:20;;;;;;;;;;;;;;;;;;5051368;28;20546;-65
2023/01/16 07:09:45;;;;;;;;;;;;;;;;;;5081645;28;19912;-65
2023/01/16 07:12:11;;;;;;;;;;;;;;;;;;5071341;28;19913;-65
2023/01/16 07:22:48;;;;;;;;;;;;;;;;;;5072001;28;20015;-65
2023/01/16 07:25:13;;;;;;;;;;;;;;;;;;5069492;28;19999;-65
2023/01/16 07:27:38;;;;;;;;;;;;;;;;;;5068196;28;19967;-64
2023/01/16 07:30:03;;;;;;;;;;;;;;;;;;5071879;28;19922;-64
2023/01/16 07:32:28;;;;;;;;;;;;;;;;;;5072150;28;19909;-64
2023/01/16 07:34:53;;;;;;;;;;;;;;;;;;5053445;28;20371;-64
2023/01/16 07:37:18;;;;;;;;;;;;;;;;;;5066218;28;19912;-65
2023/01/16 07:39:43;;;;;;;;;;;;;;;;;;5078396;28;19960;-64
2023/01/16 07:42:09;;;;;;;;;;;;;;;;;;5074875;28;19924;-64
2023/01/16 07:44:34;;;;;;;;;;;;;;;;;;5071193;28;19995;-64
2023/01/16 07:46:59;;;;;;;;;;;;;;;;;;5079227;28;19923;-64
2023/01/16 07:49:24;;;;;;;;;;;;;;;;;;5068452;28;19913;-64
2023/01/16 07:51:49;;;;;;;;;;;;;;;;;;5021435;28;20048;-64
2023/01/16 07:54:14;;;;;;;;;;;;;;;;;;5030032;28;20007;-64
2023/01/16 07:56:40;;;;;;;;;;;;;;;;;;4989099;28;19914;-64
2023/01/16 07:59:05;;;;;;;;;;;;;;;;;;5038921;28;20277;-64
2023/01/16 08:01:30;;;;;;;;;;;;;;;;;;5001954;28;19914;-64
2023/01/16 08:03:55;;;;;;;;;;;;;;;;;;5007069;28;19924;-64
2023/01/16 08:06:20;;;;;;;;;;;;;;;;;;5016017;28;19921;-63
2023/01/16 08:08:45;;;;;;;;;;;;;;;;;;5072922;28;19916;-64
2023/01/16 08:13:54;;;;;;;;;;;;;;;;;;5071273;28;20094;-64
2023/01/16 08:16:19;;;;;;;;;;;;;;;;;;5030043;28;20396;-64
2023/01/16 08:18:48;;;;;;;;;;;;;;;;;;5065908;28;19938;-64
2023/01/16 08:21:13;;;;;;;;;;;;;;;;;;5069244;28;19917;-64
2023/01/16 08:23:40;;;;;;;;;;;;;;;;;;5055281;28;19923;-64
2023/01/16 08:26:05;;;;;;;;;;;;;;;;;;5071807;28;19916;-64
2023/01/16 08:28:30;;;;;;;;;;;;;;;;;;5072624;28;19958;-64
2023/01/16 08:30:55;;;;;;;;;;;;;;;;;;5071790;28;20275;-64
2023/01/16 08:33:20;;;;;;;;;;;;;;;;;;5063765;28;20512;-64
2023/01/16 08:35:45;;;;;;;;;;;;;;;;;;5054269;28;20308;-64
2023/01/16 08:38:10;;;;;;;;;;;;;;;;;;5071705;28;19912;-65
2023/01/16 08:40:36;;;;;;;;;;;;;;;;;;5081021;28;19925;-65
2023/01/16 08:51:21;;;;;;;;;;;;;;;;;;5071134;28;20403;-65
2023/01/16 08:53:47;;;;;;;;;;;;;;;;;;5064234;28;19912;-65
2023/01/16 08:56:12;;;;;;;;;;;;;;;;;;5077634;28;19912;-65
2023/01/16 08:58:37;;;;;;;;;;;;;;;;;;5065645;28;19916;-65
2023/01/16 09:01:02;;;;;;;;;;;;;;;;;;5075514;28;19919;-65
2023/01/16 09:03:27;;;;;;;;;;;;;;;;;;5069781;28;19963;-65
2023/01/16 09:05:52;;;;;;;;;;;;;;;;;;5060660;28;20006;-64
2023/01/16 09:08:17;;;;;;;;;;;;;;;;;;5071905;28;20340;-64
2023/01/16 09:13:48;;;;;;;;;;;;;;;;;;5071955;28;20011;-64
2023/01/16 09:16:12;;;;;;;;;;;;;;;;;;5075007;28;19919;-63
2023/01/16 09:18:37;;;;;;;;;;;;;;;;;;5070452;28;19913;-63
2023/01/16 09:21:02;;;;;;;;;;;;;;;;;;5080042;28;19915;-64
2023/01/16 09:23:27;;;;;;;;;;;;;;;;;;5073497;28;20356;-65
2023/01/16 09:25:52;;;;;;;;;;;;;;;;;;5074572;28;19927;-65
2023/01/16 09:28:17;;;;;;;;;;;;;;;;;;5078449;28;19920;-64
2023/01/16 09:30:42;;;;;;;;;;;;;;;;;;5070584;28;19913;-64
2023/01/16 09:33:08;;;;;;;;;;;;;;;;;;5078091;28;20318;-64
2023/01/16 09:35:33;;;;;;;;;;;;;;;;;;5072314;28;20273;-64
2023/01/16 09:37:58;;;;;;;;;;;;;;;;;;5053403;28;20330;-65
2023/01/16 09:40:23;;;;;;;;;;;;;;;;;;5068963;28;19928;-65
2023/01/16 09:45:32;;;;;;;;;;;;;;;;;;5070908;28;19961;-64
2023/01/16 09:47:57;;;;;;;;;;;;;;;;;;5071252;28;19916;-65
2023/01/16 09:50:22;;;;;;;;;;;;;;;;;;5071603;28;19912;-65
2023/01/16 10:00:59;;;;;;;;;;;;;;;;;;5070257;28;19985;-65
2023/01/16 10:03:24;;;;;;;;;;;;;;;;;;5068154;28;19920;-64
2023/01/16 10:05:50;;;;;;;;;;;;;;;;;;5060774;28;19921;-65
2023/01/16 10:08:17;;;;;;;;;;;;;;;;;;5072048;28;20001;-64
2023/01/16 10:10:43;;;;;;;;;;;;;;;;;;5071823;28;19912;-63
2023/01/16 10:13:08;;;;;;;;;;;;;;;;;;5064134;28;19913;-64
2023/01/16 10:15:33;;;;;;;;;;;;;;;;;;5064262;28;20181;-64
2023/01/16 10:17:58;;;;;;;;;;;;;;;;;;5048662;28;19916;-64
2023/01/16 10:20:23;;;;;;;;;;;;;;;;;;5049593;28;19917;-64
2023/01/16 10:22:48;;;;;;;;;;;;;;;;;;5064215;28;19921;-64
2023/01/16 10:25:13;;;;;;;;;;;;;;;;;;5069862;28;19916;-64
2023/01/16 10:27:39;;;;;;;;;;;;;;;;;;5069562;28;19913;-64
2023/01/16 10:30:04;;;;;;;;;;;;;;;;;;5061552;28;19923;-64
2023/01/16 10:32:29;;;;;;;;;;;;;;;;;;5030979;28;19919;-64
2023/01/16 10:34:54;;;;;;;;;;;;;;;;;;5063990;28;19916;-64
2023/01/16 10:37:19;;;;;;;;;;;;;;;;;;5048979;28;20046;-64
2023/01/16 10:39:44;;;;;;;;;;;;;;;;;;5051138;28;20430;-65
2023/01/16 10:50:21;;;;;;;;;;;;;;;;;;5060843;28;19919;-65
2023/01/16 10:52:47;;;;;;;;;;;;;;;;;;5067954;28;19925;-64
2023/01/16 10:55:12;;;;;;;;;;;;;;;;;;5064291;28;19927;-64
2023/01/16 10:57:37;;;;;;;;;;;;;;;;;;5063401;28;19961;-64
2023/01/16 11:00:02;;;;;;;;;;;;;;;;;;5045499;28;19913;-64
2023/01/16 11:02:27;;;;;;;;;;;;;;;;;;5067556;28;19996;-64
2023/01/16 11:04:52;;;;;;;;;;;;;;;;;;5061409;28;19917;-63
2023/01/16 11:07:17;;;;;;;;;;;;;;;;;;5060012;28;19934;-64
2023/01/16 11:09:43;;;;;;;;;;;;;;;;;;5063909;28;19913;-63
2023/01/16 11:20:20;;;;;;;;;;;;;;;;;;5069154;28;19978;-64
2023/01/16 11:22:45;;;;;;;;;;;;;;;;;;5054089;28;19913;-64
2023/01/16 11:25:10;;;;;;;;;;;;;;;;;;5068472;28;19969;-65
2023/01/16 11:27:35;;;;;;;;;;;;;;;;;;5002290;28;19914;-64
2023/01/16 11:30:00;;;;;;;;;;;;;;;;;;5067161;28;19912;-64
2023/01/16 11:32:28;;;;;;;;;;;;;;;;;;5074317;28;19917;-64
2023/01/16 11:34:53;;;;;;;;;;;;;;;;;;5067177;28;19908;-64
2023/01/16 11:37:18;;;;;;;;;;;;;;;;;;5060988;28;19926;-64
2023/01/16 11:39:43;;;;;;;;;;;;;;;;;;5069628;28;20021;-64
2023/01/16 11:46:02;;;;;;;;;;;;;;;;;;5072482;28;19912;-64
2023/01/16 11:47:40;;;;;;;;;;;;;;;;;;5074206;28;19923;-64
2023/01/16 11:50:05;;;;;;;;;;;;;;;;;;5084135;28;19912;-63
2023/01/16 11:52:35;;;;;;;;;;;;;;;;;;5073137;28;19912;-64
2023/01/16 11:55:01;;;;;;;;;;;;;;;;;;5068315;28;19913;-64
2023/01/16 11:57:26;;;;;;;;;;;;;;;;;;5071599;28;19916;-63
2023/01/16 11:59:52;;;;;;;;;;;;;;;;;;5069945;28;19921;-63
2023/01/16 12:02:18;;;;;;;;;;;;;;;;;;5073759;28;19916;-68
2023/01/16 12:05:53;;;;;;;;;;;;;;;;;;5056869;28;19916;-66
2023/01/16 12:07:29;;;;;;;;;;;;;;;;;;5072855;28;19913;-69
2023/01/16 12:09:54;;;;;;;;;;;;;;;;;;5061236;28;19920;-68
2023/01/16 12:15:03;;;;;;;;;;;;;;;;;;5064411;28;19962;-68
2023/01/16 12:17:29;;;;;;;;;;;;;;;;;;5055686;28;20369;-67
2023/01/16 12:19:54;;;;;;;;;;;;;;;;;;5072836;28;19912;-65
2023/01/16 12:22:19;;;;;;;;;;;;;;;;;;5069964;28;19916;-68
2023/01/16 12:24:44;;;;;;;;;;;;;;;;;;5069245;28;19913;-68
2023/01/16 12:27:09;;;;;;;;;;;;;;;;;;5069929;28;20008;-69
2023/01/16 12:29:34;;;;;;;;;;;;;;;;;;5070814;28;19920;-68
2023/01/16 12:32:00;;;;;;;;;;;;;;;;;;5070697;28;20316;-68
2023/01/16 12:34:25;;;;;;;;;;;;;;;;;;5055459;28;20371;-69
2023/01/16 12:36:51;;;;;;;;;;;;;;;;;;5050740;28;20008;-71
2023/01/16 12:39:17;;;;;;;;;;;;;;;;;;5067327;28;21391;-72
2023/01/16 12:44:27;;;;;;;;;;;;;;;;;;5056752;28;20331;-69
2023/01/16 12:46:52;;;;;;;;;;;;;;;;;;5067143;28;19913;-66
2023/01/16 12:49:17;;;;;;;;;;;;;;;;;;5063712;28;20364;-72
2023/01/16 12:51:42;;;;;;;;;;;;;;;;;;5071830;28;20404;-69
2023/01/16 12:54:07;;;;;;;;;;;;;;;;;;5067162;28;19913;-68
2023/01/16 12:56:32;;;;;;;;;;;;;;;;;;5058914;28;19916;-67
2023/01/16 12:58:58;;;;;;;;;;;;;;;;;;5066692;28;20006;-69
2023/01/16 13:01:23;;;;;;;;;;;;;;;;;;5062773;28;20152;-66
2023/01/16 13:03:48;;;;;;;;;;;;;;;;;;5061539;28;19956;-68
2023/01/16 13:06:13;;;;;;;;;;;;;;;;;;5058909;28;19943;-65
2023/01/16 13:08:38;;;;;;;;;;;;;;;;;;5051585;28;19928;-64
2023/01/16 13:13:47;;;;;;;;;;;;;;;;;;5060547;28;20384;-64
2023/01/16 13:16:13;;;;;;;;;;;;;;;;;;5065974;28;19912;-68
2023/01/16 13:18:38;;;;;;;;;;;;;;;;;;5057887;28;19913;-67
2023/01/16 13:21:03;;;;;;;;;;;;;;;;;;5036247;28;20007;-63
2023/01/16 13:23:28;;;;;;;;;;;;;;;;;;5059578;28;20451;-64
2023/01/16 13:25:56;;;;;;;;;;;;;;;;;;5071942;28;19909;-64
2023/01/16 13:28:21;;;;;;;;;;;;;;;;;;5056013;28;20421;-69
2023/01/16 13:30:46;;;;;;;;;;;;;;;;;;5071727;28;19913;-66
2023/01/16 13:33:11;;;;;;;;;;;;;;;;;;5069563;28;19908;-65
2023/01/16 13:35:37;;;;;;;;;;;;;;;;;;5065430;28;19909;-64
2023/01/16 13:38:02;;;;;;;;;;;;;;;;;;5050836;28;19913;-65
2023/01/16 13:40:27;;;;;;;;;;;;;;;;;;5059518;28;19921;-68
2023/01/16 13:42:52;;;;;;;;;;;;;;;;;;5060647;28;19920;-64
2023/01/16 13:48:01;;;;;;;;;;;;;;;;;;5063402;28;19919;-64
2023/01/16 13:50:26;;;;;;;;;;;;;;;;;;5072305;28;19908;-65
2023/01/16 13:52:52;;;;;;;;;;;;;;;;;;5070911;28;20253;-64
2023/01/16 13:55:17;;;;;;;;;;;;;;;;;;5063265;28;20273;-64
2023/01/16 13:57:42;;;;;;;;;;;;;;;;;;5072295;28;19909;-65
2023/01/16 14:00:08;;;;;;;;;;;;;;;;;;5071131;28;19919;-67
2023/01/16 14:02:33;;;;;;;;;;;;;;;;;;5069066;28;19916;-66
2023/01/16 14:04:58;;;;;;;;;;;;;;;;;;5058578;28;19912;-64
2023/01/16 14:10:07;;;;;;;;;;;;;;;;;;5066695;28;19924;-64
2023/01/16 14:12:33;;;;;;;;;;;;;;;;;;5064113;28;19925;-65
2023/01/16 14:17:42;;;;;;;;;;;;;;;;;;5060206;28;19920;-64
2023/01/16 14:20:07;;;;;;;;;;;;;;;;;;5070934;28;19913;-65
2023/01/16 14:24:57;;;;;;;;;;;;;;;;;;5059788;28;19947;-64
2023/01/16 14:27:22;;;;;;;;;;;;;;;;;;5068168;28;20254;-65
2023/01/16 14:29:49;;;;;;;;;;;;;;;;;;5068535;28;20277;-62
2023/01/16 14:32:14;;;;;;;;;;;;;;;;;;5067371;28;19917;-64
2023/01/16 14:34:45;;;;;;;;;;;;;;;;;;5061118;28;20390;-65
2023/01/16 14:37:10;;;;;;;;;;;;;;;;;;5059242;28;19924;-63
2023/01/16 14:39:35;;;;;;;;;;;;;;;;;;5063935;28;19924;-63
2023/01/16 14:55:40;;;;;;;;;;;;;;;;;;5067586;28;20027;-63
2023/01/16 14:58:05;;;;;;;;;;;;;;;;;;5071502;28;20411;-64
2023/01/16 15:00:30;;;;;;;;;;;;;;;;;;5076511;28;19959;-65
2023/01/16 15:02:55;;;;;;;;;;;;;;;;;;5075526;28;19916;-65
2023/01/16 15:05:25;;;;;;;;;;;;;;;;;;5073422;28;19967;-64
2023/01/16 15:07:50;;;;;;;;;;;;;;;;;;5051260;28;20430;-63
2023/01/16 15:10:15;;;;;;;;;;;;;;;;;;5057522;28;20016;-64
2023/01/16 15:12:41;;;;;;;;;;;;;;;;;;5072155;28;19912;-65
2023/01/16 15:15:06;;;;;;;;;;;;;;;;;;5068298;28;19989;-64
2023/01/16 15:22:59;;;;;;;;;;;;;;;;;;5076878;28;19958;-64
2023/01/16 15:25:24;;;;;;;;;;;;;;;;;;5067542;28;19959;-64
2023/01/16 15:27:49;;;;;;;;;;;;;;;;;;5071363;28;19916;-64
2023/01/16 15:30:18;;;;;;;;;;;;;;;;;;5076335;28;19920;-64
2023/01/16 15:32:43;;;;;;;;;;;;;;;;;;5069418;28;19916;-63
2023/01/16 15:35:08;;;;;;;;;;;;;;;;;;5068003;28;19963;-64
2023/01/16 15:37:33;;;;;;;;;;;;;;;;;;5070649;28;19943;-64
2023/01/16 15:39:58;;;;;;;;;;;;;;;;;;5069017;28;19927;-63
2023/01/16 15:47:51;;;;;;;;;;;;;;;;;;5068541;28;20421;-64
2023/01/16 15:50:16;;;;;;;;;;;;;;;;;;5077077;28;19912;-64
2023/01/16 15:52:42;;;;;;;;;;;;;;;;;;5090197;28;19959;-64
2023/01/16 15:55:08;;;;;;;;;;;;;;;;;;5070833;28;19958;-64
2023/01/16 15:57:33;;;;;;;;;;;;;;;;;;5078172;28;20348;-64
2023/01/16 15:59:58;;;;;;;;;;;;;;;;;;5069090;28;19913;-64
2023/01/16 16:02:24;;;;;;;;;;;;;;;;;;5070581;28;19917;-64
2023/01/16 16:04:50;;;;;;;;;;;;;;;;;;5070830;28;19920;-65
2023/01/16 16:07:15;;;;;;;;;;;;;;;;;;5071480;28;20467;-64
2023/01/16 16:09:40;;;;;;;;;;;;;;;;;;5070758;28;19924;-64
2023/01/16 16:12:05;;;;;;;;;;;;;;;;;;5067663;28;19920;-64
2023/01/16 16:19:58;;;;;;;;;;;;;;;;;;5072541;28;19981;-64
2023/01/16 16:25:07;;;;;;;;;;;;;;;;;;5069912;28;19966;-64
2023/01/16 16:27:32;;;;;;;;;;;;;;;;;;5073309;28;19916;-64
2023/01/16 16:29:58;;;;;;;;;;;;;;;;;;5072123;28;19912;-65
2023/01/16 16:32:23;;;;;;;;;;;;;;;;;;5075530;28;19913;-65
2023/01/16 16:34:48;;;;;;;;;;;;;;;;;;5072097;28;19920;-64
2023/01/16 16:37:13;;;;;;;;;;;;;;;;;;5074219;28;19920;-63
2023/01/16 16:39:39;;;;;;;;;;;;;;;;;;5073705;28;19960;-64
2023/01/16 16:44:48;;;;;;;;;;;;;;;;;;5073943;28;20159;-65
2023/01/16 16:47:13;;;;;;;;;;;;;;;;;;5069543;28;19916;-64
2023/01/16 16:49:38;;;;;;;;;;;;;;;;;;5071723;28;20293;-63
2023/01/16 16:52:03;;;;;;;;;;;;;;;;;;5070666;28;20437;-64
2023/01/16 16:54:28;;;;;;;;;;;;;;;;;;5053279;28;19967;-64
2023/01/16 16:56:54;;;;;;;;;;;;;;;;;;5071353;28;19957;-64
2023/01/16 16:59:19;;;;;;;;;;;;;;;;;;5065769;28;20106;-64
2023/01/16 17:01:44;;;;;;;;;;;;;;;;;;5068706;28;20364;-64
2023/01/16 17:04:09;;;;;;;;;;;;;;;;;;5070503;28;20296;-64
2023/01/16 17:06:34;;;;;;;;;;;;;;;;;;5070212;28;19912;-64
2023/01/16 17:08:59;;;;;;;;;;;;;;;;;;5067157;28;19968;-64
2023/01/16 17:11:24;;;;;;;;;;;;;;;;;;5074545;28;20292;-64
2023/01/16 17:13:50;;;;;;;;;;;;;;;;;;5072404;28;20006;-64
2023/01/16 17:16:15;;;;;;;;;;;;;;;;;;5066941;28;19919;-64
2023/01/16 17:18:40;;;;;;;;;;;;;;;;;;5071078;28;20296;-63
2023/01/16 17:21:05;;;;;;;;;;;;;;;;;;5058318;28;20331;-65
2023/01/16 17:23:30;;;;;;;;;;;;;;;;;;5073178;28;19916;-64
2023/01/16 17:25:55;;;;;;;;;;;;;;;;;;5068526;28;19916;-64
2023/01/16 17:28:21;;;;;;;;;;;;;;;;;;5061971;28;19921;-64
2023/01/16 17:30:46;;;;;;;;;;;;;;;;;;5072413;28;20007;-64
2023/01/16 17:33:11;;;;;;;;;;;;;;;;;;5071209;28;20258;-64
2023/01/16 17:35:38;;;;;;;;;;;;;;;;;;5069383;28;19959;-64
2023/01/16 17:38:03;;;;;;;;;;;;;;;;;;5067941;28;19920;-63
2023/01/16 17:40:28;;;;;;;;;;;;;;;;;;5061795;28;19929;-63
2023/01/16 17:45:53;;;;;;;;;;;;;;;;;;5050789;28;19971;-64
2023/01/16 17:48:18;;;;;;;;;;;;;;;;;;5047915;28;20011;-64
2023/01/16 17:50:43;;;;;;;;;;;;;;;;;;5052323;28;20024;-64
2023/01/16 17:53:08;;;;;;;;;;;;;;;;;;5030610;28;19920;-64
2023/01/16 17:55:51;;;;;;;;;;;;;;;;;;5051342;28;19916;-65
2023/01/16 17:58:17;;;;;;;;;;;;;;;;;;5042018;28;19943;-64
2023/01/16 18:00:42;;;;;;;;;;;;;;;;;;5049235;28;19917;-64
2023/01/16 18:03:07;;;;;;;;;;;;;;;;;;5054371;28;19923;-64
2023/01/16 18:05:32;;;;;;;;;;;;;;;;;;5053077;28;19916;-65
2023/01/16 18:07:58;;;;;;;;;;;;;;;;;;5048318;28;20023;-64
2023/01/16 18:10:23;;;;;;;;;;;;;;;;;;5052679;28;20270;-64
2023/01/16 18:18:16;;;;;;;;;;;;;;;;;;5042184;28;20368;-63
2023/01/16 18:20:41;;;;;;;;;;;;;;;;;;5044434;28;19921;-64
2023/01/16 18:23:06;;;;;;;;;;;;;;;;;;5037671;28;19925;-64
2023/01/16 18:25:31;;;;;;;;;;;;;;;;;;5035582;28;19912;-64
2023/01/16 18:27:57;;;;;;;;;;;;;;;;;;5029266;28;19920;-63
2023/01/16 18:30:22;;;;;;;;;;;;;;;;;;5039459;28;19920;-62